createdAt,value
2022-10-04T00:02:29.588Z,3.20
2022-10-04T00:05:01.756Z,3.20
2022-10-04T00:07:32.653Z,3.40
2022-10-04T00:10:15.776Z,3.25
2022-10-04T00:12:50.280Z,3.55
2022-10-04T00:15:22.757Z,3.75
2022-10-04T00:18:18.265Z,3.53
2022-10-04T00:21:07.236Z,3.80
2022-10-04T00:23:46.930Z,3.50
2022-10-04T00:27:11.157Z,4.00
2022-10-04T00:29:41.726Z,3.80
2022-10-04T00:32:28.416Z,3.70
2022-10-04T00:34:56.730Z,4.07
2022-10-04T00:37:26.452Z,3.78
2022-10-04T00:40:12.814Z,3.90
2022-10-04T00:42:50.562Z,3.33
2022-10-04T00:45:40.485Z,3.63
2022-10-04T00:48:31.231Z,3.50
2022-10-04T00:51:07.383Z,3.40
2022-10-04T00:53:51.197Z,3.65
2022-10-04T00:56:25.903Z,3.35
2022-10-04T00:59:31.871Z,3.13
2022-10-04T01:02:07.389Z,3.15
2022-10-04T01:04:43.441Z,3.28
2022-10-04T01:07:16.028Z,2.95
2022-10-04T01:09:51.876Z,2.92
2022-10-04T01:12:36.286Z,2.83
2022-10-04T01:15:10.889Z,2.70
2022-10-04T01:17:39.284Z,2.88
2022-10-04T01:20:32.319Z,2.90
2022-10-04T01:23:00.573Z,2.60
2022-10-04T01:25:46.782Z,3.00
2022-10-04T01:28:14.714Z,2.55
2022-10-04T01:30:43.152Z,3.17
2022-10-04T01:33:12.487Z,3.10
2022-10-04T01:35:39.805Z,3.00
2022-10-04T01:38:08.457Z,3.15
2022-10-04T01:40:45.148Z,3.25
2022-10-04T01:43:21.894Z,3.03
2022-10-04T01:45:54.234Z,2.80
2022-10-04T01:48:26.976Z,3.33
2022-10-04T01:50:59.919Z,3.25
2022-10-04T01:53:31.768Z,3.10
2022-10-04T01:56:08.072Z,3.03
2022-10-04T01:58:45.346Z,2.70
2022-10-04T02:01:18.775Z,2.63
2022-10-04T02:04:21.328Z,2.80
2022-10-04T02:06:53.803Z,2.83
2022-10-04T02:09:27.059Z,3.05
2022-10-04T02:14:51.205Z,2.30
2022-10-04T02:17:21.973Z,2.72
2022-10-04T02:19:50.218Z,2.28
2022-10-04T02:22:18.660Z,2.58
2022-10-04T02:24:49.844Z,2.40
2022-10-04T02:27:17.199Z,2.40
2022-10-04T02:29:44.390Z,2.50
2022-10-04T02:32:14.288Z,2.65
2022-10-04T02:34:41.674Z,2.58
2022-10-04T02:37:09.261Z,2.45
2022-10-04T02:39:42.826Z,1.90
2022-10-04T02:42:18.169Z,2.22
2022-10-04T02:44:51.597Z,2.40
2022-10-04T02:47:23.549Z,2.30
2022-10-04T02:49:55.269Z,2.20
2022-10-04T02:52:29.745Z,2.38
2022-10-04T02:55:03.504Z,2.13
2022-10-04T02:57:34.406Z,2.13
2022-10-04T03:00:16.829Z,2.50
2022-10-04T03:05:46.566Z,2.10
2022-10-04T03:08:14.288Z,2.25
2022-10-04T03:10:43.129Z,2.08
2022-10-04T03:13:14.525Z,2.45
2022-10-04T03:15:43.470Z,2.28
2022-10-04T03:18:11.189Z,2.08
2022-10-04T03:23:32.677Z,2.25
2022-10-04T03:26:05.604Z,2.72
2022-10-04T03:28:37.257Z,2.70
2022-10-04T03:31:05.046Z,2.78
2022-10-04T03:33:32.596Z,2.30
2022-10-04T03:36:01.268Z,2.58
2022-10-04T03:38:29.066Z,2.45
2022-10-04T03:40:59.673Z,2.40
2022-10-04T03:43:30.491Z,2.25
2022-10-04T03:46:01.083Z,2.60
2022-10-04T03:48:34.406Z,2.83
2022-10-04T03:51:05.024Z,2.78
2022-10-04T03:53:35.792Z,2.78
2022-10-04T03:56:11.131Z,2.40
2022-10-04T03:58:38.166Z,2.67
2022-10-04T04:01:29.227Z,2.72
2022-10-04T04:04:06.622Z,2.83
2022-10-04T04:06:44.504Z,2.67
2022-10-04T04:09:21.846Z,2.65
2022-10-04T04:11:51.191Z,2.67
2022-10-04T04:14:25.073Z,2.60
2022-10-04T04:17:13.387Z,2.72
2022-10-04T04:19:41.891Z,2.40
2022-10-04T04:22:16.501Z,2.50
2022-10-04T04:24:45.957Z,3.10
2022-10-04T04:27:20.643Z,2.38
2022-10-04T04:29:52.288Z,2.70
2022-10-04T04:32:25.311Z,2.17
2022-10-04T04:34:57.038Z,2.95
2022-10-04T04:37:24.059Z,2.47
2022-10-04T04:39:52.734Z,2.08
2022-10-04T04:42:27.188Z,2.33
2022-10-04T04:44:57.796Z,2.22
2022-10-04T04:47:33.572Z,2.13
2022-10-04T04:50:12.301Z,1.98
2022-10-04T04:52:40.693Z,2.30
2022-10-04T04:55:19.804Z,2.70
2022-10-04T04:57:48.766Z,2.40
2022-10-04T05:00:19.892Z,2.15
2022-10-04T05:02:58.828Z,2.35
2022-10-04T05:05:28.042Z,2.58
2022-10-04T05:08:13.937Z,1.98
2022-10-04T05:10:46.244Z,2.53
2022-10-04T05:13:16.123Z,2.30
2022-10-04T05:15:44.687Z,2.50
2022-10-04T05:18:29.233Z,2.67
2022-10-04T05:21:02.831Z,2.53
2022-10-04T05:23:31.044Z,2.45
2022-10-04T05:25:58.659Z,2.15
2022-10-04T05:28:25.931Z,2.30
2022-10-04T05:31:20.658Z,2.40
2022-10-04T05:33:54.187Z,2.38
2022-10-04T05:36:51.222Z,2.67
2022-10-04T05:39:28.267Z,2.70
2022-10-04T05:42:04.853Z,2.50
2022-10-04T05:44:44.719Z,1.70
2022-10-04T05:47:14.152Z,2.25
2022-10-04T05:49:45.610Z,2.63
2022-10-04T05:52:24.610Z,2.42
2022-10-04T05:55:25.228Z,2.00
2022-10-04T05:58:17.669Z,1.80
2022-10-04T06:03:48.054Z,1.40
2022-10-04T06:06:24.376Z,1.88
2022-10-04T06:09:08.568Z,1.45
2022-10-04T06:11:50.455Z,1.58
2022-10-04T06:14:40.952Z,1.20
2022-10-04T06:17:28.770Z,1.48
2022-10-04T06:23:51.149Z,1.55
2022-10-04T06:26:23.795Z,2.10
2022-10-04T06:28:58.288Z,1.77
2022-10-04T06:32:06.136Z,1.77
2022-10-04T06:35:14.389Z,1.55
2022-10-04T06:38:25.317Z,1.67
2022-10-04T06:41:25.937Z,1.40
2022-10-04T06:44:19.110Z,1.60
2022-10-04T06:46:50.901Z,1.55
2022-10-04T06:49:41.647Z,1.42
2022-10-04T06:52:44.048Z,1.67
2022-10-04T06:55:45.440Z,1.55
2022-10-04T06:58:52.145Z,1.40
2022-10-04T07:01:29.246Z,2.13
2022-10-04T07:04:09.298Z,1.83
2022-10-04T07:06:47.028Z,1.52
2022-10-04T07:09:23.191Z,1.60
2022-10-04T07:14:59.759Z,1.60
2022-10-04T07:17:35.964Z,1.92
2022-10-04T07:20:05.685Z,2.22
2022-10-04T07:22:41.972Z,1.70
2022-10-04T07:25:19.362Z,1.90
2022-10-04T07:27:54.200Z,1.90
2022-10-04T07:30:22.533Z,1.70
2022-10-04T07:32:50.749Z,2.38
2022-10-04T07:35:28.782Z,1.90
2022-10-04T07:38:10.393Z,1.92
2022-10-04T07:40:41.592Z,2.00
2022-10-04T07:43:20.706Z,1.73
2022-10-04T07:45:49.390Z,1.95
2022-10-04T07:48:21.400Z,2.20
2022-10-04T07:51:03.735Z,2.38
2022-10-04T07:56:07.694Z,1.80
2022-10-04T07:58:46.935Z,2.15
2022-10-04T08:01:27.121Z,2.03
2022-10-04T08:04:14.460Z,2.33
2022-10-04T08:06:58.596Z,2.15
2022-10-04T08:09:47.115Z,2.17
2022-10-04T08:12:24.075Z,2.22
2022-10-04T08:15:02.816Z,2.47
2022-10-04T08:17:56.563Z,2.15
2022-10-04T08:20:36.827Z,2.47
2022-10-04T08:23:36.529Z,2.33
2022-10-04T08:26:24.582Z,2.42
2022-10-04T08:29:08.470Z,2.75
2022-10-04T08:31:49.290Z,2.78
2022-10-04T08:34:33.083Z,2.60
2022-10-04T08:37:16.495Z,2.97
2022-10-04T08:40:15.064Z,2.65
2022-10-04T08:43:37.122Z,3.15
2022-10-04T08:46:38.670Z,2.95
2022-10-04T08:49:42.439Z,3.00
2022-10-04T08:52:44.595Z,2.90
2022-10-04T08:55:49.531Z,2.88
2022-10-04T08:58:52.644Z,3.58
2022-10-04T09:02:00.230Z,3.45
2022-10-04T09:05:12.972Z,3.65
2022-10-04T09:11:19.686Z,3.33
2022-10-04T09:14:29.437Z,3.47
2022-10-04T09:17:22.334Z,3.58
2022-10-04T09:20:19.522Z,3.80
2022-10-04T09:22:56.144Z,4.13
2022-10-04T09:25:48.089Z,3.60
2022-10-04T09:29:05.103Z,3.60
2022-10-04T09:32:22.214Z,3.45
2022-10-04T09:35:42.211Z,3.03
2022-10-04T09:38:57.793Z,4.05
2022-10-04T09:42:18.042Z,3.42
2022-10-04T09:45:24.397Z,3.38
2022-10-04T09:48:16.553Z,3.50
2022-10-04T09:51:24.655Z,3.50
2022-10-04T09:54:18.539Z,3.42
2022-10-04T09:57:15.666Z,4.00
2022-10-04T10:00:16.108Z,3.78
2022-10-04T10:03:41.690Z,3.40
2022-10-04T10:06:51.285Z,3.15
2022-10-04T10:09:30.439Z,3.40
2022-10-04T10:12:23.998Z,3.30
2022-10-04T10:15:12.918Z,3.00
2022-10-04T10:17:50.407Z,3.00
2022-10-04T10:20:54.711Z,3.25
2022-10-04T10:24:02.831Z,3.45
2022-10-04T10:27:15.113Z,3.33
2022-10-04T10:33:27.176Z,3.33
2022-10-04T10:36:23.453Z,3.40
2022-10-04T10:39:50.202Z,4.10
2022-10-04T10:42:50.888Z,2.92
2022-10-04T10:45:42.054Z,3.88
2022-10-04T10:48:15.950Z,4.10
2022-10-04T10:51:09.255Z,3.60
2022-10-04T10:54:29.145Z,3.70
2022-10-04T10:57:10.699Z,4.25
2022-10-04T11:00:17.960Z,4.00
2022-10-04T11:03:39.100Z,4.35
2022-10-04T11:07:01.545Z,3.88
2022-10-04T11:10:04.586Z,3.55
2022-10-04T11:13:19.532Z,3.75
2022-10-04T11:16:44.901Z,3.75
2022-10-04T11:19:57.190Z,3.78
2022-10-04T11:23:22.921Z,3.75
2022-10-04T11:26:49.522Z,3.70
2022-10-04T11:29:40.979Z,3.65
2022-10-04T11:33:03.845Z,3.65
2022-10-04T11:36:00.097Z,4.00
2022-10-04T11:39:06.150Z,3.13
2022-10-04T11:41:51.770Z,3.65
2022-10-04T11:44:56.914Z,3.00
2022-10-04T11:47:41.272Z,3.10
2022-10-04T11:50:35.322Z,3.03
2022-10-04T11:54:04.809Z,2.85
2022-10-04T11:56:52.046Z,3.10
2022-10-04T11:59:41.472Z,3.10
2022-10-04T12:02:46.231Z,2.92
2022-10-04T12:05:35.186Z,2.75
2022-10-04T12:08:25.473Z,2.72
2022-10-04T12:11:35.256Z,3.08
2022-10-04T12:14:19.502Z,2.70
2022-10-04T12:17:23.558Z,2.50
2022-10-04T12:20:37.723Z,2.35
2022-10-04T12:23:44.173Z,2.30
2022-10-04T12:27:09.647Z,2.40
2022-10-04T12:30:19.079Z,2.08
2022-10-04T12:33:03.349Z,2.10
2022-10-04T12:35:52.280Z,1.90
2022-10-04T12:38:44.302Z,1.80
2022-10-04T12:43:58.479Z,1.95
2022-10-04T12:46:41.511Z,2.10
2022-10-04T12:49:25.478Z,2.03
2022-10-04T12:52:06.684Z,2.28
2022-10-04T12:54:41.782Z,2.05
2022-10-04T12:57:44.002Z,1.92
2022-10-04T13:00:20.062Z,1.73
2022-10-04T13:03:15.309Z,2.22
2022-10-04T13:09:12.681Z,1.80
2022-10-04T13:12:10.239Z,2.07
2022-10-04T13:14:54.905Z,1.90
2022-10-04T13:17:43.574Z,1.45
2022-10-04T13:20:31.966Z,1.60
2022-10-04T13:23:07.798Z,1.80
2022-10-04T13:26:04.993Z,1.63
2022-10-04T13:28:43.784Z,1.60
2022-10-04T13:31:22.917Z,2.08
2022-10-04T13:34:03.427Z,1.73
2022-10-04T13:36:50.286Z,1.73
2022-10-04T13:39:47.752Z,1.70
2022-10-04T13:42:56.648Z,2.00
2022-10-04T13:46:06.231Z,1.88
2022-10-04T13:48:47.954Z,1.95
2022-10-04T13:51:49.840Z,2.00
2022-10-04T13:54:32.198Z,1.90
2022-10-04T13:57:17.153Z,1.85
2022-10-04T13:59:53.981Z,1.88
2022-10-04T14:03:03.664Z,2.20
2022-10-04T14:06:20.875Z,1.63
2022-10-04T14:09:06.961Z,1.88
2022-10-04T14:12:35.919Z,2.22
2022-10-04T14:15:47.232Z,1.67
2022-10-04T14:19:05.647Z,1.63
2022-10-04T14:22:19.944Z,1.80
2022-10-04T14:25:28.225Z,1.60
2022-10-04T14:28:36.213Z,1.80
2022-10-04T14:31:27.987Z,1.65
2022-10-04T14:34:49.729Z,1.77
2022-10-04T14:38:24.527Z,1.70
2022-10-04T14:41:49.000Z,1.80
2022-10-04T14:45:04.750Z,1.63
2022-10-04T14:48:08.940Z,1.92
2022-10-04T14:51:07.996Z,1.70
2022-10-04T14:53:49.371Z,1.52
2022-10-04T14:56:39.986Z,1.90
2022-10-04T14:59:27.735Z,1.70
2022-10-04T15:02:43.960Z,1.67
2022-10-04T15:05:40.541Z,1.80
2022-10-04T15:09:00.372Z,1.52
2022-10-04T15:11:42.460Z,1.88
2022-10-04T15:14:40.965Z,2.10
2022-10-04T15:17:10.906Z,1.75
2022-10-04T15:20:04.743Z,2.20
2022-10-04T15:22:43.177Z,1.70
2022-10-04T15:25:41.458Z,1.70
2022-10-04T15:28:46.895Z,1.50
2022-10-04T15:31:29.948Z,1.70
2022-10-04T15:34:13.261Z,1.40
2022-10-04T15:37:05.464Z,2.05
2022-10-04T15:40:12.869Z,1.23
2022-10-04T15:43:04.482Z,1.38
2022-10-04T15:46:02.345Z,1.75
2022-10-04T15:49:21.374Z,1.60
2022-10-04T15:52:11.659Z,1.80
2022-10-04T15:55:03.713Z,1.60
2022-10-04T15:57:56.888Z,1.65
2022-10-04T16:00:28.900Z,1.45
2022-10-04T16:03:15.745Z,1.80
2022-10-04T16:05:47.095Z,1.83
2022-10-04T16:08:56.429Z,1.60
2022-10-04T16:11:38.766Z,1.70
2022-10-04T16:14:37.731Z,1.50
2022-10-04T16:17:44.074Z,1.33
2022-10-04T16:20:57.713Z,1.67
2022-10-04T16:23:30.439Z,1.55
2022-10-04T16:26:01.235Z,1.58
2022-10-04T16:28:48.620Z,1.63
2022-10-04T16:31:26.369Z,1.77
2022-10-04T16:34:02.862Z,1.60
2022-10-04T16:36:48.633Z,1.48
2022-10-04T16:39:35.852Z,1.60
2022-10-04T16:42:09.892Z,1.63
2022-10-04T16:44:52.194Z,1.38
2022-10-04T16:47:27.583Z,1.48
2022-10-04T16:49:57.859Z,1.50
2022-10-04T16:52:49.916Z,1.52
2022-10-04T16:55:47.769Z,1.55
2022-10-04T16:58:49.378Z,1.67
2022-10-04T17:01:44.544Z,1.90
2022-10-04T17:04:33.113Z,1.77
2022-10-04T17:07:13.194Z,2.05
2022-10-04T17:09:49.319Z,1.77
2022-10-04T17:12:22.595Z,1.98
2022-10-04T17:15:23.750Z,2.30
2022-10-04T17:18:03.697Z,2.00
2022-10-04T17:24:24.839Z,2.20
2022-10-04T17:27:17.583Z,2.47
2022-10-04T17:30:05.204Z,2.58
2022-10-04T17:32:50.807Z,2.50
2022-10-04T17:36:17.749Z,2.35
2022-10-04T17:39:00.827Z,2.15
2022-10-04T17:41:45.396Z,2.10
2022-10-04T17:44:34.434Z,2.10
2022-10-04T17:47:14.287Z,1.90
2022-10-04T17:49:56.225Z,2.05
2022-10-04T17:52:28.292Z,2.50
2022-10-04T17:55:05.774Z,2.30
2022-10-04T17:57:43.222Z,2.08
2022-10-04T18:00:15.052Z,2.00
2022-10-04T18:03:03.739Z,2.28
2022-10-04T18:05:42.885Z,1.80
2022-10-04T18:08:20.025Z,2.00
2022-10-04T18:10:51.979Z,2.00
2022-10-04T18:16:08.249Z,1.83
2022-10-04T18:18:42.333Z,1.90
2022-10-04T18:21:27.176Z,1.98
2022-10-04T18:23:59.154Z,1.90
2022-10-04T18:26:29.844Z,1.95
2022-10-04T18:29:00.473Z,1.83
2022-10-04T18:31:36.322Z,2.85
2022-10-04T18:34:19.095Z,2.25
2022-10-04T18:36:56.103Z,2.25
2022-10-04T18:39:24.338Z,2.17
2022-10-04T18:42:07.070Z,2.17
2022-10-04T18:44:47.403Z,1.83
2022-10-04T18:47:25.060Z,2.65
2022-10-04T18:49:54.800Z,2.80
2022-10-04T18:52:40.784Z,2.10
2022-10-04T18:55:27.081Z,2.30
2022-10-04T18:58:07.205Z,2.25
2022-10-04T19:00:42.724Z,1.90
2022-10-04T19:03:27.154Z,1.88
2022-10-04T19:06:09.352Z,1.95
2022-10-04T19:08:49.226Z,1.95
2022-10-04T19:11:22.730Z,2.33
2022-10-04T19:14:03.672Z,2.33
2022-10-04T19:16:42.916Z,2.05
2022-10-04T19:19:40.005Z,2.13
2022-10-04T19:22:27.775Z,2.20
2022-10-04T19:25:23.548Z,2.47
2022-10-04T19:27:59.767Z,2.60
2022-10-04T19:30:38.778Z,2.30
2022-10-04T19:33:17.479Z,2.70
2022-10-04T19:36:06.062Z,2.65
2022-10-04T19:39:11.689Z,2.85
2022-10-04T19:41:54.300Z,2.70
2022-10-04T19:44:36.805Z,2.90
2022-10-04T19:47:22.416Z,3.20
2022-10-04T19:49:58.710Z,3.58
2022-10-04T19:52:39.951Z,3.10
2022-10-04T19:55:27.279Z,3.58
2022-10-04T19:58:08.255Z,3.20
2022-10-04T20:00:35.181Z,3.72
2022-10-04T20:03:10.946Z,3.25
2022-10-04T20:05:44.588Z,3.20
2022-10-04T20:08:13.417Z,3.10
2022-10-04T20:10:43.704Z,3.17
2022-10-04T20:13:20.215Z,2.85
2022-10-04T20:15:53.198Z,3.20
2022-10-04T20:19:14.389Z,3.05
2022-10-04T20:21:41.261Z,2.75
2022-10-04T20:24:16.911Z,3.13
2022-10-04T20:26:52.094Z,2.65
2022-10-04T20:30:01.132Z,2.70
2022-10-04T20:33:00.155Z,2.92
2022-10-04T20:36:01.843Z,2.83
2022-10-04T20:38:54.979Z,3.07
2022-10-04T20:42:03.618Z,3.00
2022-10-04T20:44:43.151Z,2.60
2022-10-04T20:47:25.917Z,2.70
2022-10-04T20:49:54.161Z,2.70
2022-10-04T20:52:23.059Z,3.05
2022-10-04T20:54:50.702Z,2.53
2022-10-04T20:57:19.796Z,2.80
2022-10-04T20:59:46.932Z,2.45
2022-10-04T21:02:16.976Z,2.85
2022-10-04T21:04:44.033Z,3.10
2022-10-04T21:07:17.027Z,2.92
2022-10-04T21:09:44.768Z,3.05
2022-10-04T21:15:19.417Z,2.78
2022-10-04T21:18:02.236Z,3.45
2022-10-04T21:20:46.829Z,2.65
2022-10-04T21:23:27.061Z,2.55
2022-10-04T21:26:21.047Z,2.83
2022-10-04T21:28:48.952Z,3.00
2022-10-04T21:31:17.136Z,2.83
2022-10-04T21:33:44.047Z,2.83
2022-10-04T21:36:10.953Z,2.92
2022-10-04T21:38:37.685Z,2.47
2022-10-04T21:41:05.500Z,3.08
2022-10-04T21:43:33.061Z,2.30
2022-10-04T21:46:00.391Z,3.10
2022-10-04T21:48:28.723Z,2.97
2022-10-04T21:50:55.665Z,2.67
2022-10-04T21:53:22.814Z,2.97
2022-10-04T21:55:50.073Z,2.53
2022-10-04T21:58:16.806Z,3.13
2022-10-04T22:00:43.657Z,3.00
2022-10-04T22:03:10.584Z,3.20
2022-10-04T22:05:38.690Z,2.95
2022-10-04T22:08:05.443Z,3.20
2022-10-04T22:10:32.252Z,2.70
2022-10-04T22:12:59.235Z,2.80
2022-10-04T22:15:29.147Z,2.85
2022-10-04T22:17:56.304Z,2.72
2022-10-04T22:20:24.661Z,2.90
2022-10-04T22:22:53.824Z,3.13
2022-10-04T22:25:24.145Z,2.67
2022-10-04T22:27:51.845Z,3.15
2022-10-04T22:30:24.095Z,3.05
2022-10-04T22:32:54.688Z,2.92
2022-10-04T22:35:21.754Z,2.90
2022-10-04T22:37:49.528Z,3.17
2022-10-04T22:40:21.689Z,2.88
2022-10-04T22:42:52.140Z,2.95
2022-10-04T22:45:23.404Z,2.97
2022-10-04T22:47:51.549Z,3.15
2022-10-04T22:50:30.992Z,3.15
2022-10-04T22:53:03.093Z,3.33
2022-10-04T22:55:31.649Z,3.25
2022-10-04T22:57:58.889Z,3.00
2022-10-04T23:00:25.555Z,2.75
2022-10-04T23:02:52.794Z,3.20
2022-10-04T23:05:20.488Z,2.75
2022-10-04T23:07:48.485Z,2.83
2022-10-04T23:10:18.561Z,2.75
2022-10-04T23:12:48.292Z,3.05
2022-10-04T23:15:19.227Z,3.10
2022-10-04T23:17:53.855Z,2.88
2022-10-04T23:20:21.825Z,2.58
2022-10-04T23:22:52.778Z,2.97
2022-10-04T23:25:23.498Z,3.05
2022-10-04T23:27:51.839Z,3.22
2022-10-04T23:30:21.471Z,3.05
2022-10-04T23:32:51.857Z,3.08
2022-10-04T23:35:23.972Z,2.70
2022-10-04T23:37:53.020Z,3.10
2022-10-04T23:40:23.113Z,2.97
2022-10-04T23:42:56.143Z,2.55
2022-10-04T23:45:25.588Z,3.28
2022-10-04T23:47:56.967Z,2.60
2022-10-04T23:50:29.173Z,2.92
2022-10-04T23:55:31.767Z,2.65
2022-10-04T23:58:00.941Z,2.78
